sensor_id;sensor_type;location;lat;lon;timestamp;temperature;humidity
53422;DHT22;39319;52.944;5.928;2023-02-15T00:01:34;4.80;96.10
53422;DHT22;39319;52.944;5.928;2023-02-15T00:04:00;4.70;96.10
53422;DHT22;39319;52.944;5.928;2023-02-15T00:06:29;4.80;96.10
53422;DHT22;39319;52.944;5.928;2023-02-15T00:08:55;4.70;96.30
53422;DHT22;39319;52.944;5.928;2023-02-15T00:11:21;5.00;96.30
53422;DHT22;39319;52.944;5.928;2023-02-15T00:14:07;4.70;96.20
53422;DHT22;39319;52.944;5.928;2023-02-15T00:16:34;5.10;96.40
53422;DHT22;39319;52.944;5.928;2023-02-15T00:18:59;4.90;96.30
53422;DHT22;39319;52.944;5.928;2023-02-15T00:21:28;4.70;96.20
53422;DHT22;39319;52.944;5.928;2023-02-15T00:23:58;4.80;96.20
53422;DHT22;39319;52.944;5.928;2023-02-15T00:26:24;5.00;96.30
53422;DHT22;39319;52.944;5.928;2023-02-15T00:28:51;4.70;96.20
53422;DHT22;39319;52.944;5.928;2023-02-15T00:31:17;4.80;96.10
53422;DHT22;39319;52.944;5.928;2023-02-15T00:33:45;4.80;96.10
53422;DHT22;39319;52.944;5.928;2023-02-15T00:36:11;4.90;96.20
53422;DHT22;39319;52.944;5.928;2023-02-15T00:38:37;4.60;96.10
53422;DHT22;39319;52.944;5.928;2023-02-15T00:41:04;4.70;96.30
53422;DHT22;39319;52.944;5.928;2023-02-15T00:43:31;4.50;96.10
53422;DHT22;39319;52.944;5.928;2023-02-15T00:45:58;5.30;96.40
53422;DHT22;39319;52.944;5.928;2023-02-15T00:48:24;4.40;96.10
53422;DHT22;39319;52.944;5.928;2023-02-15T00:50:52;4.60;96.20
53422;DHT22;39319;52.944;5.928;2023-02-15T00:53:19;4.40;96.30
53422;DHT22;39319;52.944;5.928;2023-02-15T00:55:44;4.50;96.50
53422;DHT22;39319;52.944;5.928;2023-02-15T00:58:13;4.50;96.60
53422;DHT22;39319;52.944;5.928;2023-02-15T01:00:40;4.80;96.60
53422;DHT22;39319;52.944;5.928;2023-02-15T01:03:06;4.40;96.40
53422;DHT22;39319;52.944;5.928;2023-02-15T01:05:32;4.50;96.50
53422;DHT22;39319;52.944;5.928;2023-02-15T01:07:58;4.30;96.50
53422;DHT22;39319;52.944;5.928;2023-02-15T01:10:25;2.50;96.30
53422;DHT22;39319;52.944;5.928;2023-02-15T01:12:52;4.30;96.40
53422;DHT22;39319;52.944;5.928;2023-02-15T01:15:18;4.40;96.60
53422;DHT22;39319;52.944;5.928;2023-02-15T01:17:44;4.30;96.60
53422;DHT22;39319;52.944;5.928;2023-02-15T01:20:17;4.30;96.50
53422;DHT22;39319;52.944;5.928;2023-02-15T01:22:45;4.50;96.50
53422;DHT22;39319;52.944;5.928;2023-02-15T01:25:12;4.30;96.30
53422;DHT22;39319;52.944;5.928;2023-02-15T01:27:37;4.30;96.40
53422;DHT22;39319;52.944;5.928;2023-02-15T01:30:03;4.40;96.50
53422;DHT22;39319;52.944;5.928;2023-02-15T01:32:30;4.20;96.50
53422;DHT22;39319;52.944;5.928;2023-02-15T01:34:56;4.30;96.50
53422;DHT22;39319;52.944;5.928;2023-02-15T01:37:22;4.20;96.60
53422;DHT22;39319;52.944;5.928;2023-02-15T01:39:48;4.10;96.50
53422;DHT22;39319;52.944;5.928;2023-02-15T01:42:13;4.20;96.50
53422;DHT22;39319;52.944;5.928;2023-02-15T01:44:47;4.30;96.60
53422;DHT22;39319;52.944;5.928;2023-02-15T01:47:21;4.40;96.70
53422;DHT22;39319;52.944;5.928;2023-02-15T01:50:01;4.20;96.60
53422;DHT22;39319;52.944;5.928;2023-02-15T01:52:27;4.10;96.40
53422;DHT22;39319;52.944;5.928;2023-02-15T01:54:54;4.10;96.50
53422;DHT22;39319;52.944;5.928;2023-02-15T01:57:22;4.20;96.70
53422;DHT22;39319;52.944;5.928;2023-02-15T01:59:52;4.40;96.90
53422;DHT22;39319;52.944;5.928;2023-02-15T02:02:23;4.10;96.90
53422;DHT22;39319;52.944;5.928;2023-02-15T02:04:56;4.20;96.90
53422;DHT22;39319;52.944;5.928;2023-02-15T02:07:27;4.10;97.10
53422;DHT22;39319;52.944;5.928;2023-02-15T02:09:54;4.10;97.30
53422;DHT22;39319;52.944;5.928;2023-02-15T02:12:21;4.00;97.10
53422;DHT22;39319;52.944;5.928;2023-02-15T02:14:48;3.90;96.80
53422;DHT22;39319;52.944;5.928;2023-02-15T02:44:46;4.00;97.10
53422;DHT22;39319;52.944;5.928;2023-02-15T02:47:21;4.50;97.20
53422;DHT22;39319;52.944;5.928;2023-02-15T02:49:56;3.80;97.10
53422;DHT22;39319;52.944;5.928;2023-02-15T03:00:40;3.90;97.20
53422;DHT22;39319;52.944;5.928;2023-02-15T03:03:30;3.70;97.00
53422;DHT22;39319;52.944;5.928;2023-02-15T03:06:00;4.40;97.20
53422;DHT22;39319;52.944;5.928;2023-02-15T03:08:41;3.70;97.10
53422;DHT22;39319;52.944;5.928;2023-02-15T03:11:08;3.80;97.00
53422;DHT22;39319;52.944;5.928;2023-02-15T03:13:35;3.70;97.10
53422;DHT22;39319;52.944;5.928;2023-02-15T03:16:02;3.70;97.10
53422;DHT22;39319;52.944;5.928;2023-02-15T03:18:53;4.00;97.00
53422;DHT22;39319;52.944;5.928;2023-02-15T03:24:07;3.40;96.80
53422;DHT22;39319;52.944;5.928;2023-02-15T03:26:36;3.50;96.90
53422;DHT22;39319;52.944;5.928;2023-02-15T03:29:03;4.00;97.20
53422;DHT22;39319;52.944;5.928;2023-02-15T03:31:33;3.40;96.90
53422;DHT22;39319;52.944;5.928;2023-02-15T03:34:07;3.70;97.00
53422;DHT22;39319;52.944;5.928;2023-02-15T03:42:47;3.70;96.80
53422;DHT22;39319;52.944;5.928;2023-02-15T03:45:08;3.70;96.80
53422;DHT22;39319;52.944;5.928;2023-02-15T03:47:40;3.30;96.80
53422;DHT22;39319;52.944;5.928;2023-02-15T03:50:31;3.70;96.90
53422;DHT22;39319;52.944;5.928;2023-02-15T03:53:18;3.50;96.80
53422;DHT22;39319;52.944;5.928;2023-02-15T03:55:54;3.70;97.00
53422;DHT22;39319;52.944;5.928;2023-02-15T03:58:20;3.80;97.00
53422;DHT22;39319;52.944;5.928;2023-02-15T04:01:13;3.50;96.80
53422;DHT22;39319;52.944;5.928;2023-02-15T04:04:03;4.30;97.10
53422;DHT22;39319;52.944;5.928;2023-02-15T04:06:33;3.40;97.00
53422;DHT22;39319;52.944;5.928;2023-02-15T04:08:58;3.40;97.10
53422;DHT22;39319;52.944;5.928;2023-02-15T04:11:42;3.40;96.80
53422;DHT22;39319;52.944;5.928;2023-02-15T04:14:08;3.90;97.20
53422;DHT22;39319;52.944;5.928;2023-02-15T04:16:52;3.40;97.10
53422;DHT22;39319;52.944;5.928;2023-02-15T04:19:18;3.40;97.20
53422;DHT22;39319;52.944;5.928;2023-02-15T04:22:02;3.50;97.10
53422;DHT22;39319;52.944;5.928;2023-02-15T04:24:46;3.60;96.90
53422;DHT22;39319;52.944;5.928;2023-02-15T04:27:30;3.40;96.80
53422;DHT22;39319;52.944;5.928;2023-02-15T04:29:56;3.50;97.10
53422;DHT22;39319;52.944;5.928;2023-02-15T04:32:24;3.40;97.10
53422;DHT22;39319;52.944;5.928;2023-02-15T04:34:49;3.70;97.20
53422;DHT22;39319;52.944;5.928;2023-02-15T04:37:15;3.50;97.10
53422;DHT22;39319;52.944;5.928;2023-02-15T04:39:41;3.20;97.20
53422;DHT22;39319;52.944;5.928;2023-02-15T04:42:06;3.30;97.20
53422;DHT22;39319;52.944;5.928;2023-02-15T04:44:32;3.40;97.30
53422;DHT22;39319;52.944;5.928;2023-02-15T04:46:58;3.30;97.20
53422;DHT22;39319;52.944;5.928;2023-02-15T04:49:24;3.60;97.30
53422;DHT22;39319;52.944;5.928;2023-02-15T04:51:49;3.50;97.30
53422;DHT22;39319;52.944;5.928;2023-02-15T04:54:15;3.20;97.20
53422;DHT22;39319;52.944;5.928;2023-02-15T04:56:41;3.20;97.10
53422;DHT22;39319;52.944;5.928;2023-02-15T04:59:10;3.10;97.30
53422;DHT22;39319;52.944;5.928;2023-02-15T05:01:36;3.00;97.20
53422;DHT22;39319;52.944;5.928;2023-02-15T05:04:02;3.20;97.20
53422;DHT22;39319;52.944;5.928;2023-02-15T05:06:28;3.30;97.20
53422;DHT22;39319;52.944;5.928;2023-02-15T05:08:54;3.50;97.30
53422;DHT22;39319;52.944;5.928;2023-02-15T05:11:20;4.40;97.70
53422;DHT22;39319;52.944;5.928;2023-02-15T05:13:48;3.40;97.40
53422;DHT22;39319;52.944;5.928;2023-02-15T05:16:16;3.40;97.30
53422;DHT22;39319;52.944;5.928;2023-02-15T05:18:42;3.60;97.30
53422;DHT22;39319;52.944;5.928;2023-02-15T05:21:08;3.50;97.30
53422;DHT22;39319;52.944;5.928;2023-02-15T05:23:33;3.60;97.40
53422;DHT22;39319;52.944;5.928;2023-02-15T05:25:59;3.30;97.40
53422;DHT22;39319;52.944;5.928;2023-02-15T05:28:43;4.10;97.40
53422;DHT22;39319;52.944;5.928;2023-02-15T05:31:14;3.10;97.20
53422;DHT22;39319;52.944;5.928;2023-02-15T05:33:41;3.30;97.50
53422;DHT22;39319;52.944;5.928;2023-02-15T05:36:08;3.40;97.50
53422;DHT22;39319;52.944;5.928;2023-02-15T05:38:34;3.40;97.40
53422;DHT22;39319;52.944;5.928;2023-02-15T05:41:02;3.30;97.30
53422;DHT22;39319;52.944;5.928;2023-02-15T05:43:29;3.90;97.60
53422;DHT22;39319;52.944;5.928;2023-02-15T05:45:54;4.00;97.50
53422;DHT22;39319;52.944;5.928;2023-02-15T05:48:22;3.70;97.50
53422;DHT22;39319;52.944;5.928;2023-02-15T05:53:26;3.40;97.40
53422;DHT22;39319;52.944;5.928;2023-02-15T05:55:52;3.70;97.50
53422;DHT22;39319;52.944;5.928;2023-02-15T05:58:19;3.20;97.50
53422;DHT22;39319;52.944;5.928;2023-02-15T06:00:45;3.40;97.50
53422;DHT22;39319;52.944;5.928;2023-02-15T06:03:11;3.90;97.70
53422;DHT22;39319;52.944;5.928;2023-02-15T06:05:37;3.40;97.80
53422;DHT22;39319;52.944;5.928;2023-02-15T06:08:02;3.30;97.80
53422;DHT22;39319;52.944;5.928;2023-02-15T06:10:28;3.40;97.80
53422;DHT22;39319;52.944;5.928;2023-02-15T06:12:54;3.70;97.90
53422;DHT22;39319;52.944;5.928;2023-02-15T06:15:19;3.30;97.80
53422;DHT22;39319;52.944;5.928;2023-02-15T06:17:45;3.30;97.90
53422;DHT22;39319;52.944;5.928;2023-02-15T06:20:11;4.00;98.20
53422;DHT22;39319;52.944;5.928;2023-02-15T06:22:37;3.40;97.90
53422;DHT22;39319;52.944;5.928;2023-02-15T06:25:03;3.10;97.90
53422;DHT22;39319;52.944;5.928;2023-02-15T06:27:29;3.30;97.80
53422;DHT22;39319;52.944;5.928;2023-02-15T06:29:55;3.90;98.10
53422;DHT22;39319;52.944;5.928;2023-02-15T06:32:20;3.90;97.90
53422;DHT22;39319;52.944;5.928;2023-02-15T06:34:46;3.30;97.70
53422;DHT22;39319;52.944;5.928;2023-02-15T06:37:12;3.20;97.70
53422;DHT22;39319;52.944;5.928;2023-02-15T06:39:37;3.30;97.70
53422;DHT22;39319;52.944;5.928;2023-02-15T06:42:03;4.50;97.90
53422;DHT22;39319;52.944;5.928;2023-02-15T06:44:29;3.10;97.60
53422;DHT22;39319;52.944;5.928;2023-02-15T06:46:54;3.20;97.60
53422;DHT22;39319;52.944;5.928;2023-02-15T06:49:20;3.10;97.50
53422;DHT22;39319;52.944;5.928;2023-02-15T06:51:46;3.60;97.70
53422;DHT22;39319;52.944;5.928;2023-02-15T06:54:12;3.30;97.60
53422;DHT22;39319;52.944;5.928;2023-02-15T06:56:38;3.50;97.60
53422;DHT22;39319;52.944;5.928;2023-02-15T06:59:04;3.20;97.50
53422;DHT22;39319;52.944;5.928;2023-02-15T07:01:29;3.10;97.60
53422;DHT22;39319;52.944;5.928;2023-02-15T07:03:55;3.20;97.50
53422;DHT22;39319;52.944;5.928;2023-02-15T07:06:21;3.80;97.70
53422;DHT22;39319;52.944;5.928;2023-02-15T07:08:46;3.20;97.60
53422;DHT22;39319;52.944;5.928;2023-02-15T07:11:12;3.40;97.90
53422;DHT22;39319;52.944;5.928;2023-02-15T07:13:56;3.80;97.90
53422;DHT22;39319;52.944;5.928;2023-02-15T07:16:24;3.50;97.90
53422;DHT22;39319;52.944;5.928;2023-02-15T07:18:50;3.60;98.00
53422;DHT22;39319;52.944;5.928;2023-02-15T07:21:15;3.40;97.90
53422;DHT22;39319;52.944;5.928;2023-02-15T07:23:41;3.70;98.10
53422;DHT22;39319;52.944;5.928;2023-02-15T07:26:07;3.60;98.30
53422;DHT22;39319;52.944;5.928;2023-02-15T07:28:34;3.40;98.20
53422;DHT22;39319;52.944;5.928;2023-02-15T07:31:04;3.90;98.30
53422;DHT22;39319;52.944;5.928;2023-02-15T07:33:33;4.30;98.50
53422;DHT22;39319;52.944;5.928;2023-02-15T07:36:02;3.80;98.30
53422;DHT22;39319;52.944;5.928;2023-02-15T07:38:32;3.90;98.30
53422;DHT22;39319;52.944;5.928;2023-02-15T07:41:02;4.30;98.50
53422;DHT22;39319;52.944;5.928;2023-02-15T07:43:28;4.30;98.40
53422;DHT22;39319;52.944;5.928;2023-02-15T07:46:05;3.80;98.20
53422;DHT22;39319;52.944;5.928;2023-02-15T07:48:33;3.70;98.30
53422;DHT22;39319;52.944;5.928;2023-02-15T07:51:04;4.40;98.50
53422;DHT22;39319;52.944;5.928;2023-02-15T07:53:30;3.80;98.30
53422;DHT22;39319;52.944;5.928;2023-02-15T07:56:00;3.80;98.40
53422;DHT22;39319;52.944;5.928;2023-02-15T07:58:26;3.80;98.60
53422;DHT22;39319;52.944;5.928;2023-02-15T08:01:13;3.90;98.50
53422;DHT22;39319;52.944;5.928;2023-02-15T08:03:39;4.00;98.50
53422;DHT22;39319;52.944;5.928;2023-02-15T08:06:05;4.00;98.60
53422;DHT22;39319;52.944;5.928;2023-02-15T08:08:33;4.00;98.70
53422;DHT22;39319;52.944;5.928;2023-02-15T08:11:13;4.20;99.00
53422;DHT22;39319;52.944;5.928;2023-02-15T08:14:14;4.10;98.90
53422;DHT22;39319;52.944;5.928;2023-02-15T08:16:45;4.10;99.20
53422;DHT22;39319;52.944;5.928;2023-02-15T08:19:29;4.20;99.00
53422;DHT22;39319;52.944;5.928;2023-02-15T08:22:00;4.20;99.10
53422;DHT22;39319;52.944;5.928;2023-02-15T08:24:29;4.20;99.30
53422;DHT22;39319;52.944;5.928;2023-02-15T08:26:55;4.40;99.20
53422;DHT22;39319;52.944;5.928;2023-02-15T08:29:23;4.50;99.10
53422;DHT22;39319;52.944;5.928;2023-02-15T08:31:50;4.70;99.20
53422;DHT22;39319;52.944;5.928;2023-02-15T08:34:19;4.50;99.20
53422;DHT22;39319;52.944;5.928;2023-02-15T08:36:48;4.50;99.20
53422;DHT22;39319;52.944;5.928;2023-02-15T08:39:15;4.70;99.20
53422;DHT22;39319;52.944;5.928;2023-02-15T08:41:45;4.90;99.20
53422;DHT22;39319;52.944;5.928;2023-02-15T08:44:11;4.80;99.10
53422;DHT22;39319;52.944;5.928;2023-02-15T08:46:39;4.60;99.20
53422;DHT22;39319;52.944;5.928;2023-02-15T08:49:05;4.50;99.30
53422;DHT22;39319;52.944;5.928;2023-02-15T08:51:33;4.80;99.20
53422;DHT22;39319;52.944;5.928;2023-02-15T08:54:03;4.70;99.10
53422;DHT22;39319;52.944;5.928;2023-02-15T08:56:34;4.90;99.30
53422;DHT22;39319;52.944;5.928;2023-02-15T08:59:01;4.80;99.50
53422;DHT22;39319;52.944;5.928;2023-02-15T09:01:29;5.00;99.60
53422;DHT22;39319;52.944;5.928;2023-02-15T09:03:57;5.30;99.90
53422;DHT22;39319;52.944;5.928;2023-02-15T09:06:24;5.20;99.90
53422;DHT22;39319;52.944;5.928;2023-02-15T09:08:50;5.20;99.90
53422;DHT22;39319;52.944;5.928;2023-02-15T09:13:53;5.50;99.90
53422;DHT22;39319;52.944;5.928;2023-02-15T09:16:20;5.60;99.90
53422;DHT22;39319;52.944;5.928;2023-02-15T09:18:46;5.70;99.90
53422;DHT22;39319;52.944;5.928;2023-02-15T09:21:14;5.90;99.90
53422;DHT22;39319;52.944;5.928;2023-02-15T09:23:45;5.90;99.90
53422;DHT22;39319;52.944;5.928;2023-02-15T09:26:13;6.00;99.90
53422;DHT22;39319;52.944;5.928;2023-02-15T09:28:40;6.90;99.90
53422;DHT22;39319;52.944;5.928;2023-02-15T09:33:38;6.30;99.90
53422;DHT22;39319;52.944;5.928;2023-02-15T09:36:06;6.80;99.90
53422;DHT22;39319;52.944;5.928;2023-02-15T09:38:38;6.50;99.90
53422;DHT22;39319;52.944;5.928;2023-02-15T09:52:33;7.20;99.90
53422;DHT22;39319;52.944;5.928;2023-02-15T09:55:42;7.20;99.90
53422;DHT22;39319;52.944;5.928;2023-02-15T10:06:28;7.50;99.90
53422;DHT22;39319;52.944;5.928;2023-02-15T10:25:51;8.10;99.90
53422;DHT22;39319;52.944;5.928;2023-02-15T10:28:50;8.10;99.90
53422;DHT22;39319;52.944;5.928;2023-02-15T10:45:34;8.70;99.90
53422;DHT22;39319;52.944;5.928;2023-02-15T10:51:08;9.10;99.90
53422;DHT22;39319;52.944;5.928;2023-02-15T10:56:24;9.20;99.20
53422;DHT22;39319;52.944;5.928;2023-02-15T11:06:30;9.90;98.20
53422;DHT22;39319;52.944;5.928;2023-02-15T11:09:09;10.10;98.10
53422;DHT22;39319;52.944;5.928;2023-02-15T11:11:41;10.20;98.00
53422;DHT22;39319;52.944;5.928;2023-02-15T11:16:45;10.60;97.40
53422;DHT22;39319;52.944;5.928;2023-02-15T11:19:22;10.60;97.40
53422;DHT22;39319;52.944;5.928;2023-02-15T11:21:54;10.80;97.20
53422;DHT22;39319;52.944;5.928;2023-02-15T11:24:27;10.80;96.90
53422;DHT22;39319;52.944;5.928;2023-02-15T11:27:19;10.90;96.90
53422;DHT22;39319;52.944;5.928;2023-02-15T11:30:05;11.10;96.80
53422;DHT22;39319;52.944;5.928;2023-02-15T11:32:39;11.10;96.80
53422;DHT22;39319;52.944;5.928;2023-02-15T11:35:36;11.30;96.90
53422;DHT22;39319;52.944;5.928;2023-02-15T11:38:12;11.50;96.90
53422;DHT22;39319;52.944;5.928;2023-02-15T11:41:07;11.90;95.90
53422;DHT22;39319;52.944;5.928;2023-02-15T11:46:00;12.10;95.70
53422;DHT22;39319;52.944;5.928;2023-02-15T11:48:26;12.30;95.70
53422;DHT22;39319;52.944;5.928;2023-02-15T11:50:54;12.70;95.70
53422;DHT22;39319;52.944;5.928;2023-02-15T11:53:22;13.00;94.60
53422;DHT22;39319;52.944;5.928;2023-02-15T11:55:53;13.20;94.10
53422;DHT22;39319;52.944;5.928;2023-02-15T11:58:40;13.30;93.20
53422;DHT22;39319;52.944;5.928;2023-02-15T12:01:21;13.50;93.00
53422;DHT22;39319;52.944;5.928;2023-02-15T12:03:50;13.70;92.90
53422;DHT22;39319;52.944;5.928;2023-02-15T12:06:29;13.90;93.10
53422;DHT22;39319;52.944;5.928;2023-02-15T12:09:24;14.00;92.40
53422;DHT22;39319;52.944;5.928;2023-02-15T12:11:51;14.20;92.10
53422;DHT22;39319;52.944;5.928;2023-02-15T12:14:17;14.40;91.80
53422;DHT22;39319;52.944;5.928;2023-02-15T12:16:47;14.50;90.90
53422;DHT22;39319;52.944;5.928;2023-02-15T12:19:39;14.60;91.20
53422;DHT22;39319;52.944;5.928;2023-02-15T12:22:10;14.60;90.70
53422;DHT22;39319;52.944;5.928;2023-02-15T12:24:47;14.60;90.80
53422;DHT22;39319;52.944;5.928;2023-02-15T12:27:18;14.50;91.00
53422;DHT22;39319;52.944;5.928;2023-02-15T12:29:49;14.50;90.90
53422;DHT22;39319;52.944;5.928;2023-02-15T12:32:31;14.50;90.60
53422;DHT22;39319;52.944;5.928;2023-02-15T12:35:13;14.30;90.80
53422;DHT22;39319;52.944;5.928;2023-02-15T12:38:34;14.30;90.60
53422;DHT22;39319;52.944;5.928;2023-02-15T12:40:41;14.30;91.20
53422;DHT22;39319;52.944;5.928;2023-02-15T12:43:31;14.20;91.60
53422;DHT22;39319;52.944;5.928;2023-02-15T12:48:42;14.20;92.00
53422;DHT22;39319;52.944;5.928;2023-02-15T12:51:11;14.30;91.60
53422;DHT22;39319;52.944;5.928;2023-02-15T12:53:38;14.40;91.60
53422;DHT22;39319;52.944;5.928;2023-02-15T12:56:08;14.30;90.80
53422;DHT22;39319;52.944;5.928;2023-02-15T12:58:36;14.30;90.90
53422;DHT22;39319;52.944;5.928;2023-02-15T13:04:01;14.00;91.70
53422;DHT22;39319;52.944;5.928;2023-02-15T13:06:31;14.00;92.20
53422;DHT22;39319;52.944;5.928;2023-02-15T13:09:06;14.00;92.00
53422;DHT22;39319;52.944;5.928;2023-02-15T13:11:32;14.00;91.70
53422;DHT22;39319;52.944;5.928;2023-02-15T13:14:02;13.80;92.20
53422;DHT22;39319;52.944;5.928;2023-02-15T13:16:32;13.80;91.60
53422;DHT22;39319;52.944;5.928;2023-02-15T13:19:03;13.60;91.70
53422;DHT22;39319;52.944;5.928;2023-02-15T13:21:35;13.60;91.60
53422;DHT22;39319;52.944;5.928;2023-02-15T13:24:39;13.70;91.40
53422;DHT22;39319;52.944;5.928;2023-02-15T13:27:12;13.50;91.40
53422;DHT22;39319;52.944;5.928;2023-02-15T13:29:39;13.40;91.80
53422;DHT22;39319;52.944;5.928;2023-02-15T13:34:50;13.70;91.90
53422;DHT22;39319;52.944;5.928;2023-02-15T13:42:47;13.70;91.60
53422;DHT22;39319;52.944;5.928;2023-02-15T13:45:35;13.70;91.60
53422;DHT22;39319;52.944;5.928;2023-02-15T13:50:51;14.00;91.50
53422;DHT22;39319;52.944;5.928;2023-02-15T13:53:36;14.00;91.40
53422;DHT22;39319;52.944;5.928;2023-02-15T14:02:30;13.90;91.30
53422;DHT22;39319;52.944;5.928;2023-02-15T14:08:15;13.90;91.40
53422;DHT22;39319;52.944;5.928;2023-02-15T14:10:59;13.90;91.40
53422;DHT22;39319;52.944;5.928;2023-02-15T14:29:47;13.80;91.40
53422;DHT22;39319;52.944;5.928;2023-02-15T14:32:36;13.80;91.10
53422;DHT22;39319;52.944;5.928;2023-02-15T14:35:05;13.90;91.00
53422;DHT22;39319;52.944;5.928;2023-02-15T14:48:42;13.80;90.90
53422;DHT22;39319;52.944;5.928;2023-02-15T14:51:10;13.80;91.40
53422;DHT22;39319;52.944;5.928;2023-02-15T14:53:56;13.80;91.40
53422;DHT22;39319;52.944;5.928;2023-02-15T14:56:22;13.70;91.40
53422;DHT22;39319;52.944;5.928;2023-02-15T15:01:35;13.70;91.80
53422;DHT22;39319;52.944;5.928;2023-02-15T15:04:14;13.60;92.00
53422;DHT22;39319;52.944;5.928;2023-02-15T15:09:28;13.50;91.80
53422;DHT22;39319;52.944;5.928;2023-02-15T15:11:55;13.50;91.80
53422;DHT22;39319;52.944;5.928;2023-02-15T15:14:39;13.50;91.90
53422;DHT22;39319;52.944;5.928;2023-02-15T15:17:08;13.40;92.00
53422;DHT22;39319;52.944;5.928;2023-02-15T15:22:20;13.30;92.50
53422;DHT22;39319;52.944;5.928;2023-02-15T15:32:44;13.10;92.60
53422;DHT22;39319;52.944;5.928;2023-02-15T15:49:10;12.60;93.00
53422;DHT22;39319;52.944;5.928;2023-02-15T15:51:40;12.60;93.30
53422;DHT22;39319;52.944;5.928;2023-02-15T15:54:17;12.60;93.30
53422;DHT22;39319;52.944;5.928;2023-02-15T15:56:51;12.50;93.50
53422;DHT22;39319;52.944;5.928;2023-02-15T15:59:27;12.50;93.80
53422;DHT22;39319;52.944;5.928;2023-02-15T16:01:53;12.40;93.80
53422;DHT22;39319;52.944;5.928;2023-02-15T16:04:28;12.40;93.70
53422;DHT22;39319;52.944;5.928;2023-02-15T16:07:34;12.40;94.00
53422;DHT22;39319;52.944;5.928;2023-02-15T16:10:00;12.30;94.10
53422;DHT22;39319;52.944;5.928;2023-02-15T16:12:28;12.20;94.10
53422;DHT22;39319;52.944;5.928;2023-02-15T16:14:55;12.20;94.10
53422;DHT22;39319;52.944;5.928;2023-02-15T16:17:27;12.20;93.80
53422;DHT22;39319;52.944;5.928;2023-02-15T16:20:25;12.20;93.90
53422;DHT22;39319;52.944;5.928;2023-02-15T16:23:56;12.00;93.90
53422;DHT22;39319;52.944;5.928;2023-02-15T16:28:50;11.90;94.00
53422;DHT22;39319;52.944;5.928;2023-02-15T16:31:17;11.80;94.20
53422;DHT22;39319;52.944;5.928;2023-02-15T16:33:46;11.80;94.20
53422;DHT22;39319;52.944;5.928;2023-02-15T16:36:23;11.70;94.20
53422;DHT22;39319;52.944;5.928;2023-02-15T16:41:26;11.70;94.40
53422;DHT22;39319;52.944;5.928;2023-02-15T16:43:54;11.50;94.50
53422;DHT22;39319;52.944;5.928;2023-02-15T16:49:00;11.40;94.70
53422;DHT22;39319;52.944;5.928;2023-02-15T16:51:29;11.30;94.70
53422;DHT22;39319;52.944;5.928;2023-02-15T16:54:01;11.30;94.70
53422;DHT22;39319;52.944;5.928;2023-02-15T16:56:30;11.30;94.90
53422;DHT22;39319;52.944;5.928;2023-02-15T16:58:57;11.20;94.90
53422;DHT22;39319;52.944;5.928;2023-02-15T17:01:26;11.20;94.80
53422;DHT22;39319;52.944;5.928;2023-02-15T17:04:22;11.20;94.80
53422;DHT22;39319;52.944;5.928;2023-02-15T17:07:18;11.10;94.90
53422;DHT22;39319;52.944;5.928;2023-02-15T17:09:54;11.10;94.90
53422;DHT22;39319;52.944;5.928;2023-02-15T17:17:51;11.00;95.00
53422;DHT22;39319;52.944;5.928;2023-02-15T17:20:18;10.90;95.00
53422;DHT22;39319;52.944;5.928;2023-02-15T17:22:44;10.90;94.90
53422;DHT22;39319;52.944;5.928;2023-02-15T17:25:23;10.90;95.00
53422;DHT22;39319;52.944;5.928;2023-02-15T17:27:52;10.80;95.10
53422;DHT22;39319;52.944;5.928;2023-02-15T17:30:29;10.70;95.20
53422;DHT22;39319;52.944;5.928;2023-02-15T17:33:02;10.60;94.90
53422;DHT22;39319;52.944;5.928;2023-02-15T17:35:32;10.50;95.00
53422;DHT22;39319;52.944;5.928;2023-02-15T17:38:16;10.60;95.10
53422;DHT22;39319;52.944;5.928;2023-02-15T17:40:42;10.50;95.10
53422;DHT22;39319;52.944;5.928;2023-02-15T17:43:08;10.40;95.30
53422;DHT22;39319;52.944;5.928;2023-02-15T17:45:36;10.30;95.10
53422;DHT22;39319;52.944;5.928;2023-02-15T17:48:05;10.30;95.30
53422;DHT22;39319;52.944;5.928;2023-02-15T17:50:32;10.30;95.30
53422;DHT22;39319;52.944;5.928;2023-02-15T17:52:58;10.20;95.30
53422;DHT22;39319;52.944;5.928;2023-02-15T17:55:26;10.10;95.40
53422;DHT22;39319;52.944;5.928;2023-02-15T17:58:09;10.00;95.40
53422;DHT22;39319;52.944;5.928;2023-02-15T18:00:40;10.10;95.40
53422;DHT22;39319;52.944;5.928;2023-02-15T18:03:38;9.90;95.30
53422;DHT22;39319;52.944;5.928;2023-02-15T18:06:23;9.90;95.40
53422;DHT22;39319;52.944;5.928;2023-02-15T18:09:12;9.80;95.30
53422;DHT22;39319;52.944;5.928;2023-02-15T18:11:57;9.80;95.40
53422;DHT22;39319;52.944;5.928;2023-02-15T18:14:23;9.60;95.50
53422;DHT22;39319;52.944;5.928;2023-02-15T18:16:49;9.50;95.50
53422;DHT22;39319;52.944;5.928;2023-02-15T18:19:25;9.60;96.10
53422;DHT22;39319;52.944;5.928;2023-02-15T18:21:54;9.50;95.70
53422;DHT22;39319;52.944;5.928;2023-02-15T18:24:24;10.10;95.90
53422;DHT22;39319;52.944;5.928;2023-02-15T18:26:54;9.60;95.80
53422;DHT22;39319;52.944;5.928;2023-02-15T18:29:20;9.60;96.00
53422;DHT22;39319;52.944;5.928;2023-02-15T18:31:50;9.60;95.80
53422;DHT22;39319;52.944;5.928;2023-02-15T18:34:24;9.50;95.70
53422;DHT22;39319;52.944;5.928;2023-02-15T18:36:51;9.50;95.90
53422;DHT22;39319;52.944;5.928;2023-02-15T18:42:29;9.50;96.00
53422;DHT22;39319;52.944;5.928;2023-02-15T18:47:42;9.40;95.80
53422;DHT22;39319;52.944;5.928;2023-02-15T18:50:08;9.40;96.00
53422;DHT22;39319;52.944;5.928;2023-02-15T18:52:36;9.40;96.10
53422;DHT22;39319;52.944;5.928;2023-02-15T18:55:12;9.50;96.10
53422;DHT22;39319;52.944;5.928;2023-02-15T18:57:40;9.50;96.30
53422;DHT22;39319;52.944;5.928;2023-02-15T19:00:30;9.50;96.40
53422;DHT22;39319;52.944;5.928;2023-02-15T19:03:00;9.50;96.20
53422;DHT22;39319;52.944;5.928;2023-02-15T19:05:27;9.40;96.10
53422;DHT22;39319;52.944;5.928;2023-02-15T19:07:54;9.50;96.20
53422;DHT22;39319;52.944;5.928;2023-02-15T19:10:26;9.40;96.00
53422;DHT22;39319;52.944;5.928;2023-02-15T19:12:54;9.30;96.10
53422;DHT22;39319;52.944;5.928;2023-02-15T19:15:25;9.30;96.20
53422;DHT22;39319;52.944;5.928;2023-02-15T19:17:51;9.30;96.20
53422;DHT22;39319;52.944;5.928;2023-02-15T19:20:21;9.40;96.20
53422;DHT22;39319;52.944;5.928;2023-02-15T19:22:49;9.40;96.40
53422;DHT22;39319;52.944;5.928;2023-02-15T19:25:21;9.30;96.40
53422;DHT22;39319;52.944;5.928;2023-02-15T19:27:49;9.40;96.40
53422;DHT22;39319;52.944;5.928;2023-02-15T19:30:23;9.50;96.20
53422;DHT22;39319;52.944;5.928;2023-02-15T19:32:51;9.40;96.30
53422;DHT22;39319;52.944;5.928;2023-02-15T19:35:19;9.40;96.30
53422;DHT22;39319;52.944;5.928;2023-02-15T19:37:49;9.40;96.50
53422;DHT22;39319;52.944;5.928;2023-02-15T19:40:21;9.40;96.60
53422;DHT22;39319;52.944;5.928;2023-02-15T19:42:48;9.40;96.40
53422;DHT22;39319;52.944;5.928;2023-02-15T19:45:16;9.40;96.40
53422;DHT22;39319;52.944;5.928;2023-02-15T19:47:41;9.40;96.50
53422;DHT22;39319;52.944;5.928;2023-02-15T19:50:16;9.40;96.50
53422;DHT22;39319;52.944;5.928;2023-02-15T19:52:43;9.40;96.50